Time,TemperatureF,DewpointF,PressureIn,WindDirection,WindDirectionDegrees,WindSpeedMPH,WindSpeedGustMPH,Humidity,HourlyPrecipIn,Conditions,Clouds,dailyrainin,SoftwareType,DateUTC
2013-05-14 00:00:00,47.0,36.6,30.07,SSW,199,0.0,0.0,67,0.00,,---,0.00,VWS V14.01,2013-05-14 07:00:00,
2013-05-14 00:05:00,47.2,36.4,30.07,SSW,199,2.0,3.0,66,0.00,,---,0.00,VWS V14.01,2013-05-14 07:05:00,
2013-05-14 00:10:00,46.8,36.4,30.07,SSW,199,0.0,4.0,67,0.00,,---,0.00,VWS V14.01,2013-05-14 07:10:00,
2013-05-14 00:15:00,45.8,36.2,30.07,SSW,199,0.0,0.0,69,0.00,,---,0.00,VWS V14.01,2013-05-14 07:15:00,
2013-05-14 00:20:00,44.9,36.1,30.07,West,273,0.0,0.0,71,0.00,,---,0.00,VWS V14.01,2013-05-14 07:20:00,
2013-05-14 00:25:00,44.3,35.9,30.07,West,271,0.0,0.0,72,0.00,,---,0.00,VWS V14.01,2013-05-14 07:25:00,
2013-05-14 00:30:00,44.0,35.6,30.07,West,271,0.0,0.0,72,0.00,,---,0.00,VWS V14.01,2013-05-14 07:30:00,
2013-05-14 00:35:00,43.5,35.8,30.07,WNW,298,0.0,0.0,74,0.00,,---,0.00,VWS V14.01,2013-05-14 07:35:00,
2013-05-14 00:40:00,43.3,35.9,30.07,WNW,298,0.0,0.0,75,0.00,,---,0.00,VWS V14.01,2013-05-14 07:40:00,
2013-05-14 00:45:00,43.3,35.6,30.06,WNW,297,0.0,0.0,74,0.00,,---,0.00,VWS V14.01,2013-05-14 07:45:00,
2013-05-14 00:50:00,43.2,35.8,30.06,NNW,345,0.0,0.0,75,0.00,,---,0.00,VWS V14.01,2013-05-14 07:50:00,
2013-05-14 00:55:00,42.2,34.5,30.07,NNE,25,3.0,4.0,74,0.00,,---,0.00,VWS V14.01,2013-05-14 07:55:00,
2013-05-14 01:00:00,41.0,34.3,30.07,NNE,28,5.0,5.0,77,0.00,,---,0.00,VWS V14.01,2013-05-14 08:00:00,
2013-05-14 01:05:00,40.5,34.5,30.07,NNE,29,2.0,6.0,79,0.00,,---,0.00,VWS V14.01,2013-05-14 08:05:00,
2013-05-14 01:10:00,40.6,34.6,30.07,NNE,29,3.0,6.0,79,0.00,,---,0.00,VWS V14.01,2013-05-14 08:10:00,
2013-05-14 01:15:00,41.1,34.8,30.08,NNE,29,4.0,4.0,78,0.00,,---,0.00,VWS V14.01,2013-05-14 08:15:00,
2013-05-14 01:20:00,41.0,34.7,30.08,NNE,30,4.0,4.0,78,0.00,,---,0.00,VWS V14.01,2013-05-14 08:20:00,
2013-05-14 01:25:00,40.9,34.9,30.08,NNE,33,4.0,4.0,79,0.00,,---,0.00,VWS V14.01,2013-05-14 08:25:00,
2013-05-14 01:30:00,40.6,34.9,30.07,NE,38,4.0,4.0,80,0.00,,---,0.00,VWS V14.01,2013-05-14 08:30:00,
2013-05-14 01:35:00,40.1,34.8,30.07,NE,36,5.0,5.0,81,0.00,,---,0.00,VWS V14.01,2013-05-14 08:35:00,
2013-05-14 01:40:00,39.6,34.6,30.07,NE,38,4.0,5.0,82,0.00,,---,0.00,VWS V14.01,2013-05-14 08:40:00,
2013-05-14 01:45:00,39.4,34.4,30.07,NE,40,4.0,5.0,82,0.00,,---,0.00,VWS V14.01,2013-05-14 08:45:00,
2013-05-14 01:50:00,39.1,34.1,30.07,NE,40,3.0,5.0,82,0.00,,---,0.00,VWS V14.01,2013-05-14 08:50:00,
2013-05-14 01:55:00,38.9,34.2,30.07,NE,40,0.0,5.0,83,0.00,,---,0.00,VWS V14.01,2013-05-14 08:55:00,
2013-05-14 02:00:00,38.6,33.9,30.07,NE,40,0.0,0.0,83,0.00,,---,0.00,VWS V14.01,2013-05-14 09:00:00,
2013-05-14 02:05:00,38.4,33.7,30.07,NE,40,0.0,0.0,83,0.00,,---,0.00,VWS V14.01,2013-05-14 09:05:00,
2013-05-14 02:10:00,38.0,33.6,30.07,NE,40,0.0,0.0,84,0.00,,---,0.00,VWS V14.01,2013-05-14 09:10:00,
2013-05-14 02:15:00,37.8,33.4,30.07,NE,40,0.0,0.0,84,0.00,,---,0.00,VWS V14.01,2013-05-14 09:15:00,
2013-05-14 02:20:00,37.8,33.7,30.07,NE,36,3.0,3.0,85,0.00,,---,0.00,VWS V14.01,2013-05-14 09:20:00,
2013-05-14 02:25:00,37.9,33.5,30.07,NE,37,2.0,4.0,84,0.00,,---,0.00,VWS V14.01,2013-05-14 09:25:00,
2013-05-14 02:30:00,38.0,33.9,30.08,North,9,7.0,8.0,85,0.00,,---,0.00,VWS V14.01,2013-05-14 09:30:00,
2013-05-14 02:35:00,39.1,34.4,30.08,North,11,6.0,8.0,83,0.00,,---,0.00,VWS V14.01,2013-05-14 09:35:00,
2013-05-14 02:40:00,39.3,34.3,30.08,NNW,338,3.0,8.0,82,0.00,,---,0.00,VWS V14.01,2013-05-14 09:40:00,
2013-05-14 02:45:00,39.5,34.2,30.07,North,5,2.0,3.0,81,0.00,,---,0.00,VWS V14.01,2013-05-14 09:45:00,
2013-05-14 02:50:00,39.5,34.2,30.08,North,10,2.0,3.0,81,0.00,,---,0.00,VWS V14.01,2013-05-14 09:50:00,
2013-05-14 02:55:00,39.5,34.2,30.08,North,10,0.0,3.0,81,0.00,,---,0.00,VWS V14.01,2013-05-14 09:55:00,
2013-05-14 03:00:00,39.1,33.8,30.08,North,10,0.0,0.0,81,0.00,,---,0.00,VWS V14.01,2013-05-14 10:00:00,
2013-05-14 03:05:00,38.7,33.7,30.08,North,10,0.0,0.0,82,0.00,,---,0.00,VWS V14.01,2013-05-14 10:05:00,
2013-05-14 03:10:00,38.4,33.7,30.08,North,10,0.0,0.0,83,0.00,,---,0.00,VWS V14.01,2013-05-14 10:10:00,
2013-05-14 03:15:00,38.4,34.0,30.08,North,10,0.0,0.0,84,0.00,,---,0.00,VWS V14.01,2013-05-14 10:15:00,
2013-05-14 03:20:00,38.7,34.0,30.08,North,10,0.0,0.0,83,0.00,,---,0.00,VWS V14.01,2013-05-14 10:20:00,
2013-05-14 03:25:00,38.1,33.1,30.08,North,10,0.0,0.0,82,0.00,,---,0.00,VWS V14.01,2013-05-14 10:25:00,
2013-05-14 03:30:00,37.1,32.4,30.08,North,10,0.0,0.0,83,0.00,,---,0.00,VWS V14.01,2013-05-14 10:30:00,
2013-05-14 03:35:00,36.6,32.2,30.09,North,10,0.0,0.0,84,0.00,,---,0.00,VWS V14.01,2013-05-14 10:35:00,
2013-05-14 03:40:00,36.3,32.2,30.09,North,10,0.0,0.0,85,0.00,,---,0.00,VWS V14.01,2013-05-14 10:40:00,
2013-05-14 03:45:00,36.2,32.4,30.09,North,10,0.0,0.0,86,0.00,,---,0.00,VWS V14.01,2013-05-14 10:45:00,
2013-05-14 03:50:00,36.2,32.7,30.09,North,10,0.0,0.0,87,0.00,,---,0.00,VWS V14.01,2013-05-14 10:50:00,
2013-05-14 03:55:00,36.1,32.6,30.08,North,10,0.0,0.0,87,0.00,,---,0.00,VWS V14.01,2013-05-14 10:55:00,
2013-05-14 04:00:00,36.1,32.6,30.08,NNE,24,0.0,0.0,87,0.00,,---,0.00,VWS V14.01,2013-05-14 11:00:00,
2013-05-14 04:05:00,36.1,32.6,30.08,NE,46,3.0,5.0,87,0.00,,---,0.00,VWS V14.01,2013-05-14 11:05:00,
2013-05-14 04:09:00,36.5,32.7,30.08,NE,38,3.0,5.0,86,0.00,,---,0.00,VWS V14.01,2013-05-14 11:09:00,
2013-05-14 04:14:00,36.4,32.6,30.08,NE,38,3.0,5.0,86,0.00,,---,0.00,VWS V14.01,2013-05-14 11:14:00,
2013-05-14 04:15:00,36.4,32.6,30.08,NE,38,3.0,5.0,86,0.00,,---,0.00,VWS V14.01,2013-05-14 11:15:00,
2013-05-14 04:19:00,36.3,32.5,30.08,NE,38,1.0,4.0,86,0.00,,---,0.00,VWS V14.01,2013-05-14 11:19:00,
2013-05-14 04:24:00,36.0,32.2,30.07,NE,38,0.0,4.0,86,0.00,,---,0.00,VWS V14.01,2013-05-14 11:24:00,
2013-05-14 04:29:00,35.7,32.2,30.07,NE,38,0.0,4.0,87,0.00,,---,0.00,VWS V14.01,2013-05-14 11:29:00,
2013-05-14 04:30:00,35.7,32.2,30.07,NE,38,0.0,4.0,87,0.00,,---,0.00,VWS V14.01,2013-05-14 11:30:00,
2013-05-14 04:34:00,35.5,32.0,30.07,NE,38,0.0,0.0,87,0.00,,---,0.00,VWS V14.01,2013-05-14 11:34:00,
2013-05-14 04:39:00,35.3,32.1,30.07,NE,38,0.0,0.0,88,0.00,,---,0.00,VWS V14.01,2013-05-14 11:39:00,
2013-05-14 04:44:00,35.3,32.1,30.07,NE,38,0.0,0.0,88,0.00,,---,0.00,VWS V14.01,2013-05-14 11:44:00,
2013-05-14 04:45:00,35.3,32.1,30.07,NE,38,0.0,0.0,88,0.00,,---,0.00,VWS V14.01,2013-05-14 11:45:00,
2013-05-14 04:49:00,35.3,32.1,30.06,NE,38,0.0,0.0,88,0.00,,---,0.00,VWS V14.01,2013-05-14 11:49:00,
2013-05-14 04:54:00,35.8,32.6,30.06,NE,37,3.0,5.0,88,0.00,,---,0.00,VWS V14.01,2013-05-14 11:54:00,
2013-05-14 04:59:00,35.9,32.4,30.06,NE,37,0.0,5.0,87,0.00,,---,0.00,VWS V14.01,2013-05-14 11:59:00,
2013-05-14 05:00:00,35.9,32.4,30.06,NE,37,0.0,5.0,87,0.00,,---,0.00,VWS V14.01,2013-05-14 12:00:00,
2013-05-14 05:04:00,35.9,32.4,30.07,NE,37,0.0,0.0,87,0.00,,---,0.00,VWS V14.01,2013-05-14 12:04:00,
2013-05-14 05:09:00,36.0,32.5,30.06,NE,37,0.0,0.0,87,0.00,,---,0.00,VWS V14.01,2013-05-14 12:09:00,
2013-05-14 05:14:00,35.9,32.1,30.06,NNE,17,2.0,4.0,86,0.00,,---,0.00,VWS V14.01,2013-05-14 12:14:00,
2013-05-14 05:15:00,35.9,32.1,30.06,NNE,15,3.0,4.0,86,0.00,,---,0.00,VWS V14.01,2013-05-14 12:15:00,
2013-05-14 05:19:00,35.1,31.3,30.06,NNE,15,0.0,3.0,86,0.00,,---,0.00,VWS V14.01,2013-05-14 12:19:00,
2013-05-14 05:24:00,35.0,31.5,30.06,North,10,3.0,5.0,87,0.00,,---,0.00,VWS V14.01,2013-05-14 12:24:00,
2013-05-14 05:29:00,35.0,31.8,30.07,North,10,0.0,5.0,88,0.00,,---,0.00,VWS V14.01,2013-05-14 12:29:00,
2013-05-14 05:30:00,35.0,31.8,30.07,North,11,0.0,5.0,88,0.00,,---,0.00,VWS V14.01,2013-05-14 12:30:00,
2013-05-14 05:34:00,34.8,31.6,30.07,North,10,0.0,0.0,88,0.00,,---,0.00,VWS V14.01,2013-05-14 12:34:00,
2013-05-14 05:39:00,34.4,31.2,30.07,North,10,0.0,0.0,88,0.00,,---,0.00,VWS V14.01,2013-05-14 12:39:00,
2013-05-14 05:44:00,34.1,30.9,30.08,North,11,0.0,0.0,88,0.00,,---,0.00,VWS V14.01,2013-05-14 12:44:00,
2013-05-14 05:45:00,34.1,30.9,30.08,North,11,0.0,0.0,88,0.00,,---,0.00,VWS V14.01,2013-05-14 12:45:00,
2013-05-14 05:49:00,33.9,31.0,30.08,North,11,0.0,0.0,89,0.00,,---,0.00,VWS V14.01,2013-05-14 12:49:00,
2013-05-14 05:54:00,34.1,31.2,30.08,North,11,0.0,0.0,89,0.00,,---,0.00,VWS V14.01,2013-05-14 12:54:00,
2013-05-14 05:59:00,34.1,31.5,30.08,North,11,0.0,0.0,90,0.00,,---,0.00,VWS V14.01,2013-05-14 12:59:00,
2013-05-14 06:00:00,34.2,31.6,30.08,North,11,0.0,0.0,90,0.00,,---,0.00,VWS V14.01,2013-05-14 13:00:00,
2013-05-14 06:04:00,34.4,31.8,30.09,North,11,0.0,0.0,90,0.00,,---,0.00,VWS V14.01,2013-05-14 13:04:00,
2013-05-14 06:09:00,34.4,31.8,30.09,North,10,0.0,0.0,90,0.00,,---,0.00,VWS V14.01,2013-05-14 13:09:00,
2013-05-14 06:14:00,35.3,32.7,30.09,North,11,0.0,0.0,90,0.00,,---,0.00,VWS V14.01,2013-05-14 13:14:00,
2013-05-14 06:15:00,35.5,32.9,30.09,North,10,0.0,0.0,90,0.00,,---,0.00,VWS V14.01,2013-05-14 13:15:00,
2013-05-14 06:19:00,36.2,33.3,30.09,North,11,0.0,0.0,89,0.00,,---,0.00,VWS V14.01,2013-05-14 13:19:00,
2013-05-14 06:24:00,36.8,33.6,30.09,North,10,0.0,0.0,88,0.00,,---,0.00,VWS V14.01,2013-05-14 13:24:00,
2013-05-14 06:29:00,37.3,34.1,30.09,North,10,0.0,0.0,88,0.00,,---,0.00,VWS V14.01,2013-05-14 13:29:00,
2013-05-14 06:30:00,37.4,34.2,30.09,North,11,0.0,0.0,88,0.00,,---,0.00,VWS V14.01,2013-05-14 13:30:00,
2013-05-14 06:34:00,37.9,34.4,30.10,North,11,0.0,0.0,87,0.00,,---,0.00,VWS V14.01,2013-05-14 13:34:00,
2013-05-14 06:39:00,38.2,34.1,30.10,North,11,0.0,0.0,85,0.00,,---,0.00,VWS V14.01,2013-05-14 13:39:00,
2013-05-14 06:44:00,37.9,34.1,30.10,North,11,0.0,0.0,86,0.00,,---,0.00,VWS V14.01,2013-05-14 13:44:00,
2013-05-14 06:45:00,37.9,34.1,30.10,North,11,0.0,0.0,86,0.00,,---,0.00,VWS V14.01,2013-05-14 13:45:00,
2013-05-14 06:49:00,37.4,33.6,30.10,North,11,0.0,0.0,86,0.00,,---,0.00,VWS V14.01,2013-05-14 13:49:00,
2013-05-14 06:54:00,37.0,33.2,30.10,North,10,0.0,0.0,86,0.00,,---,0.00,VWS V14.01,2013-05-14 13:54:00,
2013-05-14 06:59:00,37.0,33.5,30.10,North,10,0.0,0.0,87,0.00,,---,0.00,VWS V14.01,2013-05-14 13:59:00,
2013-05-14 07:00:00,37.0,33.5,30.10,North,11,0.0,0.0,87,0.00,,---,0.00,VWS V14.01,2013-05-14 14:00:00,
2013-05-14 07:04:00,37.3,33.8,30.10,North,11,0.0,0.0,87,0.00,,---,0.00,VWS V14.01,2013-05-14 14:04:00,
2013-05-14 07:09:00,38.0,34.5,30.10,North,10,0.0,0.0,87,0.00,,---,0.00,VWS V14.01,2013-05-14 14:09:00,
2013-05-14 07:14:00,39.3,35.5,30.10,North,11,0.0,0.0,86,0.00,,---,0.00,VWS V14.01,2013-05-14 14:14:00,
2013-05-14 07:15:00,39.4,35.6,30.10,North,10,0.0,0.0,86,0.00,,---,0.00,VWS V14.01,2013-05-14 14:15:00,
2013-05-14 07:19:00,40.0,35.6,30.10,North,11,0.0,0.0,84,0.00,,---,0.00,VWS V14.01,2013-05-14 14:19:00,
2013-05-14 07:24:00,40.5,35.8,30.10,North,10,0.0,0.0,83,0.00,,---,0.00,VWS V14.01,2013-05-14 14:24:00,
2013-05-14 07:29:00,41.0,35.6,30.11,North,10,0.0,0.0,81,0.00,,---,0.00,VWS V14.01,2013-05-14 14:29:00,
2013-05-14 07:30:00,41.0,35.6,30.11,North,10,0.0,0.0,81,0.00,,---,0.00,VWS V14.01,2013-05-14 14:30:00,
2013-05-14 07:34:00,41.2,35.8,30.10,North,10,0.0,0.0,81,0.00,,---,0.00,VWS V14.01,2013-05-14 14:34:00,
2013-05-14 07:39:00,41.2,36.1,30.10,North,11,0.0,0.0,82,0.00,,---,0.00,VWS V14.01,2013-05-14 14:39:00,
2013-05-14 07:44:00,41.5,36.4,30.10,North,11,0.0,0.0,82,0.00,,---,0.00,VWS V14.01,2013-05-14 14:44:00,
2013-05-14 07:45:00,41.6,36.5,30.10,NNE,19,3.0,3.0,82,0.00,,---,0.00,VWS V14.01,2013-05-14 14:45:00,
2013-05-14 07:49:00,42.0,36.9,30.10,NNE,21,0.0,3.0,82,0.00,,---,0.00,VWS V14.01,2013-05-14 14:49:00,
2013-05-14 07:54:00,42.5,36.5,30.10,NNE,22,0.0,3.0,79,0.00,,---,0.00,VWS V14.01,2013-05-14 14:54:00,
2013-05-14 07:59:00,42.8,37.1,30.10,NNE,21,0.0,3.0,80,0.00,,---,0.00,VWS V14.01,2013-05-14 14:59:00,
2013-05-14 08:00:00,42.8,37.1,30.10,NNE,22,0.0,3.0,80,0.00,,---,0.00,VWS V14.01,2013-05-14 15:00:00,
2013-05-14 08:04:00,43.1,37.4,30.10,NNE,22,0.0,0.0,80,0.00,,---,0.00,VWS V14.01,2013-05-14 15:04:00,
2013-05-14 08:09:00,43.7,36.6,30.10,NNE,22,0.0,0.0,76,0.00,,---,0.00,VWS V14.01,2013-05-14 15:09:00,
2013-05-14 08:14:00,44.2,37.1,30.10,NNE,21,0.0,0.0,76,0.00,,---,0.00,VWS V14.01,2013-05-14 15:14:00,
2013-05-14 08:15:00,44.3,37.6,30.10,NNE,22,0.0,0.0,77,0.00,,---,0.00,VWS V14.01,2013-05-14 15:15:00,
2013-05-14 08:19:00,44.9,37.5,30.10,NNE,22,0.0,0.0,75,0.00,,---,0.00,VWS V14.01,2013-05-14 15:19:00,
2013-05-14 08:24:00,45.4,38.0,30.10,NNE,22,0.0,0.0,75,0.00,,---,0.00,VWS V14.01,2013-05-14 15:24:00,
2013-05-14 08:29:00,45.9,37.8,30.10,NNE,22,0.0,0.0,73,0.00,,---,0.00,VWS V14.01,2013-05-14 15:29:00,
2013-05-14 08:30:00,46.0,37.8,30.10,NNE,22,0.0,0.0,73,0.00,,---,0.00,VWS V14.01,2013-05-14 15:30:00,
2013-05-14 08:34:00,46.8,38.3,30.09,NNE,21,0.0,0.0,72,0.00,,---,0.00,VWS V14.01,2013-05-14 15:34:00,
2013-05-14 08:39:00,47.2,37.6,30.09,NNE,21,0.0,0.0,69,0.00,,---,0.00,VWS V14.01,2013-05-14 15:39:00,
2013-05-14 08:44:00,47.4,38.8,30.09,NNE,22,0.0,0.0,72,0.00,,---,0.00,VWS V14.01,2013-05-14 15:44:00,
2013-05-14 08:45:00,47.5,38.9,30.09,NNE,22,0.0,0.0,72,0.00,,---,0.00,VWS V14.01,2013-05-14 15:45:00,
2013-05-14 08:49:00,47.8,38.5,30.09,NNE,22,0.0,0.0,70,0.00,,---,0.00,VWS V14.01,2013-05-14 15:49:00,
2013-05-14 08:54:00,48.0,38.3,30.09,NNE,22,0.0,0.0,69,0.00,,---,0.00,VWS V14.01,2013-05-14 15:54:00,
2013-05-14 08:59:00,48.3,37.9,30.09,NNE,21,0.0,0.0,67,0.00,,---,0.00,VWS V14.01,2013-05-14 15:59:00,
2013-05-14 09:00:00,48.3,38.2,30.09,NNE,21,0.0,0.0,68,0.00,,---,0.00,VWS V14.01,2013-05-14 16:00:00,
2013-05-14 09:04:00,48.4,38.7,30.09,NNE,21,0.0,0.0,69,0.00,,---,0.00,VWS V14.01,2013-05-14 16:04:00,
2013-05-14 09:09:00,48.3,40.1,30.09,NNE,22,0.0,0.0,73,0.00,,---,0.00,VWS V14.01,2013-05-14 16:09:00,
2013-05-14 09:14:00,49.0,40.0,30.09,NNE,21,0.0,0.0,71,0.00,,---,0.00,VWS V14.01,2013-05-14 16:14:00,
2013-05-14 09:15:00,49.1,40.1,30.09,NNE,21,0.0,0.0,71,0.00,,---,0.00,VWS V14.01,2013-05-14 16:15:00,
2013-05-14 09:19:00,49.4,38.9,30.09,ESE,121,0.0,4.0,67,0.00,,---,0.00,VWS V14.01,2013-05-14 16:19:00,
2013-05-14 09:24:00,49.7,38.4,30.08,ESE,121,0.0,4.0,65,0.00,,---,0.00,VWS V14.01,2013-05-14 16:24:00,
2013-05-14 09:29:00,50.3,39.4,30.08,SSE,160,4.0,5.0,66,0.00,,---,0.00,VWS V14.01,2013-05-14 16:29:00,
2013-05-14 09:30:00,50.4,38.3,30.08,SSE,161,1.0,5.0,63,0.00,,---,0.00,VWS V14.01,2013-05-14 16:30:00,
2013-05-14 09:34:00,50.4,37.9,30.08,SSE,161,0.0,2.0,62,0.00,,---,0.00,VWS V14.01,2013-05-14 16:34:00,
2013-05-14 09:39:00,50.8,37.8,30.07,SSE,161,0.0,2.0,61,0.00,,---,0.00,VWS V14.01,2013-05-14 16:39:00,
2013-05-14 09:44:00,51.2,38.6,30.07,SSE,160,0.0,4.0,62,0.00,,---,0.00,VWS V14.01,2013-05-14 16:44:00,
2013-05-14 09:45:00,51.2,39.0,30.07,SSE,161,2.0,5.0,63,0.00,,---,0.00,VWS V14.01,2013-05-14 16:45:00,
2013-05-14 09:49:00,51.1,38.5,30.07,SSE,161,0.0,4.0,62,0.00,,---,0.00,VWS V14.01,2013-05-14 16:49:00,
2013-05-14 09:54:00,51.7,39.5,30.07,SSE,161,0.0,4.0,63,0.00,,---,0.00,VWS V14.01,2013-05-14 16:54:00,
2013-05-14 09:59:00,52.2,40.4,30.07,SSE,160,4.0,5.0,64,0.00,,---,0.00,VWS V14.01,2013-05-14 16:59:00,
2013-05-14 10:00:00,52.2,39.6,30.07,SSE,161,0.0,5.0,62,0.00,,---,0.00,VWS V14.01,2013-05-14 17:00:00,
2013-05-14 10:04:00,52.1,38.7,30.07,SSE,160,0.0,4.0,60,0.00,,---,0.00,VWS V14.01,2013-05-14 17:04:00,
2013-05-14 10:09:00,52.4,38.5,30.07,SSE,160,0.0,4.0,59,0.00,,---,0.00,VWS V14.01,2013-05-14 17:09:00,
2013-05-14 10:14:00,52.7,38.3,30.07,SSE,160,0.0,4.0,58,0.00,,---,0.00,VWS V14.01,2013-05-14 17:14:00,
2013-05-14 10:15:00,52.8,38.0,30.07,SSE,161,0.0,4.0,57,0.00,,---,0.00,VWS V14.01,2013-05-14 17:15:00,
2013-05-14 10:19:00,53.0,39.1,30.07,SSE,161,0.0,0.0,59,0.00,,---,0.00,VWS V14.01,2013-05-14 17:19:00,
2013-05-14 10:24:00,53.0,38.2,30.07,SSE,161,4.0,4.0,57,0.00,,---,0.00,VWS V14.01,2013-05-14 17:24:00,
2013-05-14 10:29:00,53.0,38.2,30.07,SSE,160,0.0,4.0,57,0.00,,---,0.00,VWS V14.01,2013-05-14 17:29:00,
2013-05-14 10:30:00,53.0,38.2,30.07,SSE,161,0.0,4.0,57,0.00,,---,0.00,VWS V14.01,2013-05-14 17:30:00,
2013-05-14 10:33:00,53.2,38.8,30.07,SSE,160,0.0,0.0,58,0.00,,---,0.00,VWS V14.01,2013-05-14 17:33:00,
2013-05-14 10:38:00,53.4,38.1,30.06,ESE,103,0.0,6.0,56,0.00,,---,0.00,VWS V14.01,2013-05-14 17:38:00,
2013-05-14 10:43:00,53.9,39.9,30.07,East,99,0.0,6.0,59,0.00,,---,0.00,VWS V14.01,2013-05-14 17:43:00,
2013-05-14 10:45:00,54.0,39.6,30.06,East,99,0.0,6.0,58,0.00,,---,0.00,VWS V14.01,2013-05-14 17:45:00,
2013-05-14 10:48:00,54.2,39.3,30.07,East,100,0.0,0.0,57,0.00,,---,0.00,VWS V14.01,2013-05-14 17:48:00,
2013-05-14 10:53:00,54.4,37.6,30.07,East,100,0.0,0.0,53,0.00,,---,0.00,VWS V14.01,2013-05-14 17:53:00,
2013-05-14 10:58:00,55.2,38.4,30.07,East,99,0.0,0.0,53,0.00,,---,0.00,VWS V14.01,2013-05-14 17:58:00,
2013-05-14 11:00:00,55.3,38.5,30.06,East,100,2.0,2.0,53,0.00,,---,0.00,VWS V14.01,2013-05-14 18:00:00,
2013-05-14 11:03:00,55.0,38.2,30.06,East,96,1.0,5.0,53,0.00,,---,0.00,VWS V14.01,2013-05-14 18:03:00,
2013-05-14 11:08:00,55.0,38.2,30.06,East,94,2.0,5.0,53,0.00,,---,0.00,VWS V14.01,2013-05-14 18:08:00,
2013-05-14 11:13:00,54.6,37.8,30.06,East,92,0.0,5.0,53,0.00,,---,0.00,VWS V14.01,2013-05-14 18:13:00,
2013-05-14 11:15:00,54.7,38.4,30.07,East,92,0.0,5.0,54,0.00,,---,0.00,VWS V14.01,2013-05-14 18:15:00,
2013-05-14 11:18:00,55.2,39.3,30.06,East,92,0.0,0.0,55,0.00,,---,0.00,VWS V14.01,2013-05-14 18:18:00,
2013-05-14 11:23:00,55.3,38.0,30.06,East,92,0.0,0.0,52,0.00,,---,0.00,VWS V14.01,2013-05-14 18:23:00,
2013-05-14 11:28:00,55.4,38.1,30.06,SSE,160,0.0,2.0,52,0.00,,---,0.00,VWS V14.01,2013-05-14 18:28:00,
2013-05-14 11:30:00,55.5,39.1,30.06,SSW,199,4.0,4.0,54,0.00,,---,0.00,VWS V14.01,2013-05-14 18:30:00,
2013-05-14 11:33:00,55.4,38.1,30.06,SSW,200,0.0,4.0,52,0.00,,---,0.00,VWS V14.01,2013-05-14 18:33:00,
2013-05-14 11:38:00,55.8,37.5,30.06,SSW,207,0.0,4.0,50,0.00,,---,0.00,VWS V14.01,2013-05-14 18:38:00,
2013-05-14 11:43:00,56.6,40.6,30.05,South,187,0.0,4.0,55,0.00,,---,0.00,VWS V14.01,2013-05-14 18:43:00,
2013-05-14 11:45:00,56.8,38.4,30.05,South,186,0.0,4.0,50,0.00,,---,0.00,VWS V14.01,2013-05-14 18:45:00,
2013-05-14 11:48:00,56.8,37.3,30.06,SSW,192,0.0,5.0,48,0.00,,---,0.00,VWS V14.01,2013-05-14 18:48:00,
2013-05-14 11:53:00,56.8,37.3,30.06,South,188,0.0,5.0,48,0.00,,---,0.00,VWS V14.01,2013-05-14 18:53:00,
2013-05-14 11:58:00,57.4,38.9,30.05,SSW,199,0.0,5.0,50,0.00,,---,0.00,VWS V14.01,2013-05-14 18:58:00,
2013-05-14 12:00:00,57.6,37.0,30.05,SSW,200,2.0,5.0,46,0.00,,---,0.00,VWS V14.01,2013-05-14 19:00:00,
2013-05-14 12:03:00,57.6,36.4,30.05,SW,219,0.0,6.0,45,0.00,,---,0.00,VWS V14.01,2013-05-14 19:03:00,
2013-05-14 12:08:00,57.8,36.6,30.05,SW,219,0.0,6.0,45,0.00,,---,0.00,VWS V14.01,2013-05-14 19:08:00,
2013-05-14 12:13:00,58.0,37.9,30.05,WSW,244,4.0,8.0,47,0.00,,---,0.00,VWS V14.01,2013-05-14 19:13:00,
2013-05-14 12:15:00,58.0,35.1,30.05,WSW,246,0.0,8.0,42,0.00,,---,0.00,VWS V14.01,2013-05-14 19:15:00,
2013-05-14 12:18:00,57.9,36.7,30.05,SSW,213,4.0,7.0,45,0.00,,---,0.00,VWS V14.01,2013-05-14 19:18:00,
2013-05-14 12:23:00,57.6,35.9,30.05,SSW,213,0.0,7.0,44,0.00,,---,0.00,VWS V14.01,2013-05-14 19:23:00,
2013-05-14 12:28:00,58.0,35.1,30.04,South,178,0.0,7.0,42,0.00,,---,0.00,VWS V14.01,2013-05-14 19:28:00,
2013-05-14 12:30:00,58.3,36.5,30.04,South,180,0.0,7.0,44,0.00,,---,0.00,VWS V14.01,2013-05-14 19:30:00,
2013-05-14 12:33:00,58.5,33.0,30.04,SSW,200,1.0,5.0,38,0.00,,---,0.00,VWS V14.01,2013-05-14 19:33:00,
2013-05-14 12:38:00,58.7,32.5,30.04,SSW,200,0.0,5.0,37,0.00,,---,0.00,VWS V14.01,2013-05-14 19:38:00,
2013-05-14 12:43:00,59.0,31.4,30.04,SSW,202,0.0,5.0,35,0.00,,---,0.00,VWS V14.01,2013-05-14 19:43:00,
2013-05-14 12:45:00,59.0,30.0,30.04,SSE,148,0.0,5.0,33,0.00,,---,0.00,VWS V14.01,2013-05-14 19:45:00,
2013-05-14 12:48:00,59.3,25.4,30.04,SSE,150,0.0,4.0,27,0.00,,---,0.00,VWS V14.01,2013-05-14 19:48:00,
2013-05-14 12:53:00,59.7,32.7,30.03,West,266,0.0,5.0,36,0.00,,---,0.00,VWS V14.01,2013-05-14 19:53:00,
2013-05-14 12:58:00,59.7,32.7,30.03,NNW,329,0.0,5.0,36,0.00,,---,0.00,VWS V14.01,2013-05-14 19:58:00,
2013-05-14 13:00:00,59.8,34.8,30.03,NNW,329,0.0,5.0,39,0.00,,---,0.00,VWS V14.01,2013-05-14 20:00:00,
2013-05-14 13:03:00,60.3,31.1,30.03,SE,144,0.0,5.0,33,0.00,,---,0.00,VWS V14.01,2013-05-14 20:03:00,
2013-05-14 13:08:00,60.3,35.3,30.03,ESE,116,0.0,5.0,39,0.00,,---,0.00,VWS V14.01,2013-05-14 20:08:00,
2013-05-14 13:13:00,61.2,38.0,30.03,SSW,192,0.0,5.0,42,0.00,,---,0.00,VWS V14.01,2013-05-14 20:13:00,
2013-05-14 13:15:00,61.1,33.3,30.03,SW,226,0.0,5.0,35,0.00,,---,0.00,VWS V14.01,2013-05-14 20:15:00,
2013-05-14 13:18:00,61.3,34.1,30.03,SSW,197,5.0,8.0,36,0.00,,---,0.00,VWS V14.01,2013-05-14 20:18:00,
2013-05-14 13:23:00,61.1,34.0,30.03,SSW,207,0.0,8.0,36,0.00,,---,0.00,VWS V14.01,2013-05-14 20:23:00,
2013-05-14 13:28:00,60.8,33.0,30.03,SE,130,0.0,10.0,35,0.00,,---,0.00,VWS V14.01,2013-05-14 20:28:00,
2013-05-14 13:30:00,60.8,35.1,30.03,SE,128,0.0,10.0,38,0.00,,---,0.00,VWS V14.01,2013-05-14 20:30:00,
2013-05-14 13:33:00,61.1,37.2,30.02,SE,144,0.0,0.0,41,0.00,,---,0.00,VWS V14.01,2013-05-14 20:33:00,
2013-05-14 13:38:00,60.9,34.5,30.02,East,84,0.0,7.0,37,0.00,,---,0.00,VWS V14.01,2013-05-14 20:38:00,
2013-05-14 13:43:00,61.5,38.2,30.02,SW,217,0.0,7.0,42,0.00,,---,0.00,VWS V14.01,2013-05-14 20:43:00,
2013-05-14 13:45:00,61.5,34.3,30.02,SW,217,0.0,7.0,36,0.00,,---,0.00,VWS V14.01,2013-05-14 20:45:00,
2013-05-14 13:48:00,61.7,34.5,30.02,SE,132,0.0,0.0,36,0.00,,---,0.00,VWS V14.01,2013-05-14 20:48:00,
2013-05-14 13:53:00,62.2,38.2,30.01,WNW,284,6.0,8.0,41,0.00,,---,0.00,VWS V14.01,2013-05-14 20:53:00,
2013-05-14 13:58:00,61.7,36.5,30.01,SW,215,0.0,8.0,39,0.00,,---,0.00,VWS V14.01,2013-05-14 20:58:00,
2013-05-14 14:00:00,61.5,36.3,30.01,SW,215,0.0,8.0,39,0.00,,---,0.00,VWS V14.01,2013-05-14 21:00:00,
2013-05-14 14:03:00,61.4,35.6,30.01,SW,216,0.0,5.0,38,0.00,,---,0.00,VWS V14.01,2013-05-14 21:03:00,
2013-05-14 14:08:00,61.8,37.9,30.01,SW,228,0.0,5.0,41,0.00,,---,0.00,VWS V14.01,2013-05-14 21:08:00,
2013-05-14 14:13:00,62.1,34.8,30.01,SE,140,0.0,12.0,36,0.00,,---,0.00,VWS V14.01,2013-05-14 21:13:00,
2013-05-14 14:15:00,62.1,35.5,30.01,SSW,201,1.0,12.0,37,0.00,,---,0.00,VWS V14.01,2013-05-14 21:15:00,
2013-05-14 14:18:00,62.3,35.0,30.01,SE,142,0.0,4.0,36,0.00,,---,0.00,VWS V14.01,2013-05-14 21:18:00,
2013-05-14 14:23:00,62.4,38.4,30.01,West,277,0.0,9.0,41,0.00,,---,0.00,VWS V14.01,2013-05-14 21:23:00,
2013-05-14 14:28:00,62.4,35.8,30.01,WSW,244,1.0,9.0,37,0.00,,---,0.00,VWS V14.01,2013-05-14 21:28:00,
2013-05-14 14:30:00,62.2,37.6,30.01,NW,313,4.0,9.0,40,0.00,,---,0.00,VWS V14.01,2013-05-14 21:30:00,
2013-05-14 14:33:00,62.1,37.5,30.01,NNW,328,2.0,5.0,40,0.00,,---,0.00,VWS V14.01,2013-05-14 21:33:00,
2013-05-14 14:38:00,62.1,36.9,30.00,North,355,0.0,5.0,39,0.00,,---,0.00,VWS V14.01,2013-05-14 21:38:00,
2013-05-14 14:43:00,62.4,40.2,30.00,NNW,336,0.0,5.0,44,0.00,,---,0.00,VWS V14.01,2013-05-14 21:43:00,
2013-05-14 14:45:00,62.5,37.9,30.00,NW,310,0.0,5.0,40,0.00,,---,0.00,VWS V14.01,2013-05-14 21:45:00,
2013-05-14 14:48:00,62.7,39.9,30.00,WNW,288,1.0,4.0,43,0.00,,---,0.00,VWS V14.01,2013-05-14 21:48:00,
2013-05-14 14:53:00,62.9,40.1,30.00,NW,304,0.0,4.0,43,0.00,,---,0.00,VWS V14.01,2013-05-14 21:53:00,
2013-05-14 14:58:00,63.1,37.8,30.00,NNW,329,0.0,4.0,39,0.00,,---,0.00,VWS V14.01,2013-05-14 21:58:00,
2013-05-14 15:00:00,63.2,38.5,30.00,NW,323,0.0,4.0,40,0.00,,---,0.00,VWS V14.01,2013-05-14 22:00:00,
2013-05-14 15:03:00,63.2,41.0,30.00,NW,317,0.0,0.0,44,0.00,,---,0.00,VWS V14.01,2013-05-14 22:03:00,
2013-05-14 15:08:00,63.4,39.9,29.99,WSW,238,2.0,10.0,42,0.00,,---,0.00,VWS V14.01,2013-05-14 22:08:00,
2013-05-14 15:13:00,63.3,40.5,29.99,WSW,240,5.0,10.0,43,0.00,,---,0.00,VWS V14.01,2013-05-14 22:13:00,
2013-05-14 15:15:00,63.3,36.6,29.99,WSW,254,0.0,10.0,37,0.00,,---,0.00,VWS V14.01,2013-05-14 22:15:00,
2013-05-14 15:18:00,63.3,37.3,29.99,SSW,199,4.0,4.0,38,0.00,,---,0.00,VWS V14.01,2013-05-14 22:18:00,
2013-05-14 15:23:00,63.8,35.7,29.99,SSW,211,0.0,5.0,35,0.00,,---,0.00,VWS V14.01,2013-05-14 22:23:00,
2013-05-14 15:28:00,64.4,38.3,29.98,WSW,245,0.0,5.0,38,0.00,,---,0.00,VWS V14.01,2013-05-14 22:28:00,
2013-05-14 15:30:00,64.5,37.0,29.98,SW,235,4.0,9.0,36,0.00,,---,0.00,VWS V14.01,2013-05-14 22:30:00,
2013-05-14 15:33:00,64.1,36.6,29.98,SSW,199,0.0,8.0,36,0.00,,---,0.00,VWS V14.01,2013-05-14 22:33:00,
2013-05-14 15:38:00,64.3,38.8,29.98,SSW,199,0.0,8.0,39,0.00,,---,0.00,VWS V14.01,2013-05-14 22:38:00,
2013-05-14 15:43:00,64.7,37.2,29.98,SSW,211,0.0,8.0,36,0.00,,---,0.00,VWS V14.01,2013-05-14 22:43:00,
2013-05-14 15:45:00,64.8,39.3,29.98,SW,226,4.0,8.0,39,0.00,,---,0.00,VWS V14.01,2013-05-14 22:45:00,
2013-05-14 15:48:00,64.7,39.8,29.98,SSW,199,5.0,8.0,40,0.00,,---,0.00,VWS V14.01,2013-05-14 22:48:00,
2013-05-14 15:52:00,64.7,37.2,29.97,SW,236,7.0,8.0,36,0.00,,---,0.00,VWS V14.01,2013-05-14 22:52:00,
2013-05-14 15:57:00,64.4,38.3,29.97,SSW,210,0.0,8.0,38,0.00,,---,0.00,VWS V14.01,2013-05-14 22:57:00,
2013-05-14 16:00:00,64.5,37.0,29.97,SSW,210,0.0,8.0,36,0.00,,---,0.00,VWS V14.01,2013-05-14 23:00:00,
2013-05-14 16:02:00,64.6,36.3,29.97,SSW,210,0.0,0.0,35,0.00,,---,0.00,VWS V14.01,2013-05-14 23:02:00,
2013-05-14 16:07:00,65.2,39.6,29.97,SSW,210,0.0,0.0,39,0.00,,---,0.00,VWS V14.01,2013-05-14 23:07:00,
2013-05-14 16:12:00,65.1,37.5,29.97,WSW,256,6.0,10.0,36,0.00,,---,0.00,VWS V14.01,2013-05-14 23:12:00,
2013-05-14 16:15:00,64.8,35.8,29.97,WSW,246,3.0,10.0,34,0.00,,---,0.00,VWS V14.01,2013-05-14 23:15:00,
2013-05-14 16:17:00,64.5,36.3,29.97,WSW,244,1.0,5.0,35,0.00,,---,0.00,VWS V14.01,2013-05-14 23:17:00,
2013-05-14 16:22:00,64.7,38.5,29.97,WSW,250,5.0,8.0,38,0.00,,---,0.00,VWS V14.01,2013-05-14 23:22:00,
2013-05-14 16:27:00,64.7,36.4,29.97,SSW,205,2.0,9.0,35,0.00,,---,0.00,VWS V14.01,2013-05-14 23:27:00,
2013-05-14 16:30:00,65.1,37.5,29.97,SSW,205,0.0,9.0,36,0.00,,---,0.00,VWS V14.01,2013-05-14 23:30:00,
2013-05-14 16:32:00,65.3,35.5,29.97,West,267,0.0,4.0,33,0.00,,---,0.00,VWS V14.01,2013-05-14 23:32:00,
2013-05-14 16:37:00,65.4,36.3,29.97,WNW,292,1.0,9.0,34,0.00,,---,0.00,VWS V14.01,2013-05-14 23:37:00,
2013-05-14 16:42:00,65.2,40.3,29.97,West,272,14.0,14.0,40,0.00,,---,0.00,VWS V14.01,2013-05-14 23:42:00,
2013-05-14 16:45:00,64.9,35.9,29.97,West,263,3.0,14.0,34,0.00,,---,0.00,VWS V14.01,2013-05-14 23:45:00,
2013-05-14 16:47:00,64.9,35.1,29.97,West,263,0.0,3.0,33,0.00,,---,0.00,VWS V14.01,2013-05-14 23:47:00,
2013-05-14 16:52:00,65.3,35.5,29.97,West,271,0.0,5.0,33,0.00,,---,0.00,VWS V14.01,2013-05-14 23:52:00,
2013-05-14 16:57:00,65.7,37.3,29.97,WSW,253,6.0,7.0,35,0.00,,---,0.00,VWS V14.01,2013-05-14 23:57:00,
2013-05-14 17:00:00,65.6,37.2,29.97,WSW,254,4.0,8.0,35,0.00,,---,0.00,VWS V14.01,2013-05-15 00:00:00,
2013-05-14 17:02:00,65.3,38.4,29.97,WSW,249,5.0,8.0,37,0.00,,---,0.00,VWS V14.01,2013-05-15 00:02:00,
2013-05-14 17:07:00,65.0,38.1,29.97,WSW,252,7.0,8.0,37,0.00,,---,0.00,VWS V14.01,2013-05-15 00:07:00,
2013-05-14 17:12:00,64.7,39.2,29.97,WNW,283,9.0,20.0,39,0.00,,---,0.00,VWS V14.01,2013-05-15 00:12:00,
2013-05-14 17:15:00,64.6,41.0,29.97,West,262,2.0,20.0,42,0.00,,---,0.00,VWS V14.01,2013-05-15 00:15:00,
2013-05-14 17:17:00,64.5,40.3,29.97,West,265,6.0,6.0,41,0.00,,---,0.00,VWS V14.01,2013-05-15 00:17:00,
2013-05-14 17:22:00,64.3,38.8,29.97,West,263,6.0,10.0,39,0.00,,---,0.00,VWS V14.01,2013-05-15 00:22:00,
2013-05-14 17:27:00,64.1,37.3,29.97,WSW,256,2.0,14.0,37,0.00,,---,0.00,VWS V14.01,2013-05-15 00:27:00,
2013-05-14 17:30:00,64.2,39.4,29.97,WSW,257,2.0,14.0,40,0.00,,---,0.00,VWS V14.01,2013-05-15 00:30:00,
2013-05-14 17:32:00,64.3,38.2,29.97,West,275,5.0,6.0,38,0.00,,---,0.00,VWS V14.01,2013-05-15 00:32:00,
2013-05-14 17:37:00,64.4,38.3,29.96,West,277,3.0,6.0,38,0.00,,---,0.00,VWS V14.01,2013-05-15 00:37:00,
2013-05-14 17:42:00,64.6,39.1,29.96,WSW,256,2.0,7.0,39,0.00,,---,0.00,VWS V14.01,2013-05-15 00:42:00,
2013-05-14 17:45:00,64.6,38.4,29.96,WSW,254,3.0,8.0,38,0.00,,---,0.00,VWS V14.01,2013-05-15 00:45:00,
2013-05-14 17:47:00,64.6,38.4,29.96,WNW,282,5.0,9.0,38,0.00,,---,0.00,VWS V14.01,2013-05-15 00:47:00,
2013-05-14 17:52:00,64.5,40.3,29.96,West,268,1.0,9.0,41,0.00,,---,0.00,VWS V14.01,2013-05-15 00:52:00,
2013-05-14 17:57:00,64.3,39.5,29.96,West,279,3.0,10.0,40,0.00,,---,0.00,VWS V14.01,2013-05-15 00:57:00,
2013-05-14 18:00:00,64.3,39.5,29.96,WNW,286,6.0,10.0,40,0.00,,---,0.00,VWS V14.01,2013-05-15 01:00:00,
2013-05-14 18:02:00,64.2,38.1,29.96,WNW,302,11.0,14.0,38,0.00,,---,0.00,VWS V14.01,2013-05-15 01:02:00,
2013-05-14 18:07:00,64.0,39.2,29.96,WNW,301,4.0,14.0,40,0.00,,---,0.00,VWS V14.01,2013-05-15 01:07:00,
2013-05-14 18:12:00,63.9,37.1,29.96,WNW,284,1.0,14.0,37,0.00,,---,0.00,VWS V14.01,2013-05-15 01:12:00,
2013-05-14 18:15:00,63.9,38.5,29.96,West,272,4.0,14.0,39,0.00,,---,0.00,VWS V14.01,2013-05-15 01:15:00,
2013-05-14 18:17:00,64.0,39.2,29.96,West,273,6.0,8.0,40,0.00,,---,0.00,VWS V14.01,2013-05-15 01:17:00,
2013-05-14 18:22:00,63.8,39.0,29.96,West,275,5.0,10.0,40,0.00,,---,0.00,VWS V14.01,2013-05-15 01:22:00,
2013-05-14 18:27:00,63.1,37.8,29.96,West,275,5.0,12.0,39,0.00,,---,0.00,VWS V14.01,2013-05-15 01:27:00,
2013-05-14 18:30:00,62.9,38.9,29.96,West,276,3.0,12.0,41,0.00,,---,0.00,VWS V14.01,2013-05-15 01:30:00,
2013-05-14 18:32:00,62.9,40.7,29.96,West,271,5.0,7.0,44,0.00,,---,0.00,VWS V14.01,2013-05-15 01:32:00,
2013-05-14 18:37:00,62.7,39.9,29.96,West,269,3.0,8.0,43,0.00,,---,0.00,VWS V14.01,2013-05-15 01:37:00,
2013-05-14 18:42:00,62.7,38.0,29.96,West,268,9.0,14.0,40,0.00,,---,0.00,VWS V14.01,2013-05-15 01:42:00,
2013-05-14 18:45:00,62.8,39.4,29.96,West,264,5.0,14.0,42,0.00,,---,0.00,VWS V14.01,2013-05-15 01:45:00,
2013-05-14 18:47:00,62.8,38.1,29.96,West,275,9.0,10.0,40,0.00,,---,0.00,VWS V14.01,2013-05-15 01:47:00,
2013-05-14 18:52:00,62.9,38.9,29.96,West,267,6.0,10.0,41,0.00,,---,0.00,VWS V14.01,2013-05-15 01:52:00,
2013-05-14 18:57:00,62.9,38.9,29.96,West,260,8.0,10.0,41,0.00,,---,0.00,VWS V14.01,2013-05-15 01:57:00,
2013-05-14 19:00:00,62.9,38.2,29.96,WNW,291,5.0,10.0,40,0.00,,---,0.00,VWS V14.01,2013-05-15 02:00:00,
2013-05-14 19:02:00,62.8,38.8,29.96,WNW,290,4.0,7.0,41,0.00,,---,0.00,VWS V14.01,2013-05-15 02:02:00,
2013-05-14 19:07:00,62.5,40.3,29.96,West,269,5.0,7.0,44,0.00,,---,0.00,VWS V14.01,2013-05-15 02:07:00,
2013-05-14 19:12:00,62.2,38.8,29.96,WNW,290,1.0,10.0,42,0.00,,---,0.00,VWS V14.01,2013-05-15 02:12:00,
2013-05-14 19:15:00,62.2,38.2,29.96,NW,309,7.0,10.0,41,0.00,,---,0.00,VWS V14.01,2013-05-15 02:15:00,
2013-05-14 19:17:00,62.1,37.5,29.96,WNW,288,7.0,10.0,40,0.00,,---,0.00,VWS V14.01,2013-05-15 02:17:00,
2013-05-14 19:22:00,61.9,38.6,29.96,NW,304,2.0,10.0,42,0.00,,---,0.00,VWS V14.01,2013-05-15 02:22:00,
2013-05-14 19:27:00,61.5,38.2,29.96,WNW,298,1.0,10.0,42,0.00,,---,0.00,VWS V14.01,2013-05-15 02:27:00,
2013-05-14 19:30:00,61.3,38.0,29.96,NW,307,5.0,10.0,42,0.00,,---,0.00,VWS V14.01,2013-05-15 02:30:00,
2013-05-14 19:32:00,61.2,37.3,29.96,WNW,299,1.0,5.0,41,0.00,,---,0.00,VWS V14.01,2013-05-15 02:32:00,
2013-05-14 19:37:00,61.1,38.5,29.96,WNW,292,0.0,5.0,43,0.00,,---,0.00,VWS V14.01,2013-05-15 02:37:00,
2013-05-14 19:42:00,60.9,39.4,29.96,WNW,291,0.0,5.0,45,0.00,,---,0.00,VWS V14.01,2013-05-15 02:42:00,
2013-05-14 19:45:00,60.8,38.2,29.97,WNW,291,0.0,5.0,43,0.00,,---,0.00,VWS V14.01,2013-05-15 02:45:00,
2013-05-14 19:47:00,60.8,38.8,29.97,WNW,292,0.0,0.0,44,0.00,,---,0.00,VWS V14.01,2013-05-15 02:47:00,
2013-05-14 19:52:00,60.5,37.9,29.96,West,271,0.0,0.0,43,0.00,,---,0.00,VWS V14.01,2013-05-15 02:52:00,
2013-05-14 19:57:00,60.2,38.2,29.97,West,267,0.0,0.0,44,0.00,,---,0.00,VWS V14.01,2013-05-15 02:57:00,
2013-05-14 20:00:00,60.0,37.5,29.96,West,267,0.0,0.0,43,0.00,,---,0.00,VWS V14.01,2013-05-15 03:00:00,
2013-05-14 20:02:00,59.8,37.9,29.96,West,267,0.0,0.0,44,0.00,,---,0.00,VWS V14.01,2013-05-15 03:02:00,
2013-05-14 20:07:00,59.3,38.0,29.97,West,267,0.0,0.0,45,0.00,,---,0.00,VWS V14.01,2013-05-15 03:07:00,
2013-05-14 20:12:00,59.0,38.3,29.97,West,267,0.0,0.0,46,0.00,,---,0.00,VWS V14.01,2013-05-15 03:12:00,
2013-05-14 20:15:00,58.9,37.6,29.97,West,266,6.0,6.0,45,0.00,,---,0.00,VWS V14.01,2013-05-15 03:15:00,
2013-05-14 20:17:00,58.8,37.0,29.97,West,272,3.0,8.0,44,0.00,,---,0.00,VWS V14.01,2013-05-15 03:17:00,
2013-05-14 20:22:00,58.6,36.8,29.97,West,272,5.0,8.0,44,0.00,,---,0.00,VWS V14.01,2013-05-15 03:22:00,
2013-05-14 20:27:00,58.0,36.8,29.97,West,271,4.0,8.0,45,0.00,,---,0.00,VWS V14.01,2013-05-15 03:27:00,
2013-05-14 20:30:00,57.5,36.3,29.97,West,276,3.0,8.0,45,0.00,,---,0.00,VWS V14.01,2013-05-15 03:30:00,
2013-05-14 20:32:00,57.2,36.6,29.97,West,276,3.0,5.0,46,0.00,,---,0.00,VWS V14.01,2013-05-15 03:32:00,
2013-05-14 20:37:00,56.5,36.5,29.97,West,275,3.0,5.0,47,0.00,,---,0.00,VWS V14.01,2013-05-15 03:37:00,
2013-05-14 20:42:00,56.0,36.6,29.97,WNW,288,3.0,5.0,48,0.00,,---,0.00,VWS V14.01,2013-05-15 03:42:00,
2013-05-14 20:45:00,55.8,36.4,29.98,WNW,295,5.0,7.0,48,0.00,,---,0.00,VWS V14.01,2013-05-15 03:45:00,
2013-05-14 20:47:00,55.7,36.3,29.98,WNW,295,7.0,8.0,48,0.00,,---,0.00,VWS V14.01,2013-05-15 03:47:00,
2013-05-14 20:52:00,55.8,36.9,29.98,WNW,289,7.0,8.0,49,0.00,,---,0.00,VWS V14.01,2013-05-15 03:52:00,
2013-05-14 20:57:00,55.9,36.5,29.98,WNW,286,6.0,8.0,48,0.00,,---,0.00,VWS V14.01,2013-05-15 03:57:00,
2013-05-14 21:00:00,55.7,36.8,29.98,WNW,287,4.0,8.0,49,0.00,,---,0.00,VWS V14.01,2013-05-15 04:00:00,
2013-05-14 21:01:00,55.6,36.8,29.98,WNW,288,3.0,4.0,49,0.00,,---,0.00,VWS V14.01,2013-05-15 04:01:00,
2013-05-14 21:06:00,55.1,36.8,29.99,WNW,299,0.0,4.0,50,0.00,,---,0.00,VWS V14.01,2013-05-15 04:06:00,
2013-05-14 21:11:00,54.7,36.4,29.99,West,281,5.0,5.0,50,0.00,,---,0.00,VWS V14.01,2013-05-15 04:11:00,
2013-05-14 21:15:00,54.3,37.1,29.99,West,265,4.0,5.0,52,0.00,,---,0.00,VWS V14.01,2013-05-15 04:15:00,
2013-05-14 21:16:00,54.2,37.0,29.99,West,259,4.0,4.0,52,0.00,,---,0.00,VWS V14.01,2013-05-15 04:16:00,
2013-05-14 21:21:00,53.9,37.2,29.99,WSW,257,2.0,4.0,53,0.00,,---,0.00,VWS V14.01,2013-05-15 04:21:00,
2013-05-14 21:26:00,53.7,36.5,29.99,WSW,239,4.0,5.0,52,0.00,,---,0.00,VWS V14.01,2013-05-15 04:26:00,
2013-05-14 21:30:00,54.0,36.8,30.00,SW,225,5.0,6.0,52,0.00,,---,0.00,VWS V14.01,2013-05-15 04:30:00,
2013-05-14 21:31:00,54.1,35.9,29.99,SW,227,2.0,6.0,50,0.00,,---,0.00,VWS V14.01,2013-05-15 04:31:00,
2013-05-14 21:36:00,53.8,36.6,30.00,WSW,248,2.0,6.0,52,0.00,,---,0.00,VWS V14.01,2013-05-15 04:36:00,
2013-05-14 21:41:00,53.3,36.6,30.00,WSW,248,0.0,6.0,53,0.00,,---,0.00,VWS V14.01,2013-05-15 04:41:00,
2013-05-14 21:45:00,53.0,37.3,30.00,WSW,248,0.0,6.0,55,0.00,,---,0.00,VWS V14.01,2013-05-15 04:45:00,
2013-05-14 21:46:00,52.9,36.7,30.00,WSW,248,0.0,0.0,54,0.00,,---,0.00,VWS V14.01,2013-05-15 04:46:00,
2013-05-14 21:51:00,52.3,36.6,30.00,WSW,249,0.0,0.0,55,0.00,,---,0.00,VWS V14.01,2013-05-15 04:51:00,
2013-05-14 21:56:00,51.9,36.7,30.00,WSW,249,0.0,0.0,56,0.00,,---,0.00,VWS V14.01,2013-05-15 04:56:00,
2013-05-14 22:00:00,51.7,36.1,30.01,WSW,248,0.0,0.0,55,0.00,,---,0.00,VWS V14.01,2013-05-15 05:00:00,
2013-05-14 22:01:00,51.8,35.7,30.01,WSW,248,0.0,0.0,54,0.00,,---,0.00,VWS V14.01,2013-05-15 05:01:00,
2013-05-14 22:06:00,52.7,35.1,30.01,WSW,241,4.0,4.0,51,0.00,,---,0.00,VWS V14.01,2013-05-15 05:06:00,
2013-05-14 22:10:00,53.5,35.8,30.00,WSW,246,0.0,5.0,51,0.00,,---,0.00,VWS V14.01,2013-05-15 05:10:00,
2013-05-14 22:15:00,53.2,35.1,30.01,WSW,246,0.0,0.0,50,0.00,,---,0.00,VWS V14.01,2013-05-15 05:15:00,
2013-05-14 22:20:00,53.1,35.5,30.01,WSW,246,0.0,0.0,51,0.00,,---,0.00,VWS V14.01,2013-05-15 05:20:00,
2013-05-14 22:25:00,52.9,35.3,30.01,WSW,246,0.0,0.0,51,0.00,,---,0.00,VWS V14.01,2013-05-15 05:25:00,
2013-05-14 22:30:00,52.9,34.8,30.01,WSW,246,0.0,0.0,50,0.00,,---,0.00,VWS V14.01,2013-05-15 05:30:00,
2013-05-14 22:35:00,53.6,34.9,30.01,WSW,245,2.0,4.0,49,0.00,,---,0.00,VWS V14.01,2013-05-15 05:35:00,
2013-05-14 22:40:00,54.1,34.3,30.01,WSW,240,2.0,5.0,47,0.00,,---,0.00,VWS V14.01,2013-05-15 05:40:00,
2013-05-14 22:45:00,54.3,35.0,30.01,WSW,239,2.0,3.0,48,0.00,,---,0.00,VWS V14.01,2013-05-15 05:45:00,
2013-05-14 22:50:00,54.1,34.9,30.01,WSW,239,0.0,3.0,48,0.00,,---,0.00,VWS V14.01,2013-05-15 05:50:00,
2013-05-14 22:55:00,53.6,34.9,30.00,WSW,245,0.0,3.0,49,0.00,,---,0.00,VWS V14.01,2013-05-15 05:55:00,
2013-05-14 23:00:00,53.2,34.5,30.01,WSW,245,0.0,3.0,49,0.00,,---,0.00,VWS V14.01,2013-05-15 06:00:00,
2013-05-14 23:01:00,53.1,34.5,30.01,WSW,245,0.0,0.0,49,0.00,,---,0.00,VWS V14.01,2013-05-15 06:01:00,
2013-05-14 23:06:00,53.4,34.2,30.00,NNW,345,0.0,0.0,48,0.00,,---,0.00,VWS V14.01,2013-05-15 06:06:00,
2013-05-14 23:11:00,53.7,34.0,30.01,WNW,286,3.0,5.0,47,0.00,,---,0.00,VWS V14.01,2013-05-15 06:11:00,
2013-05-14 23:15:00,54.2,33.9,30.01,WNW,292,1.0,7.0,46,0.00,,---,0.00,VWS V14.01,2013-05-15 06:15:00,
2013-05-14 23:16:00,54.3,34.0,30.00,WNW,292,1.0,2.0,46,0.00,,---,0.00,VWS V14.01,2013-05-15 06:16:00,
2013-05-14 23:21:00,54.6,33.7,30.00,WNW,283,1.0,2.0,45,0.00,,---,0.00,VWS V14.01,2013-05-15 06:21:00,
2013-05-14 23:26:00,54.5,34.2,30.00,WNW,284,0.0,2.0,46,0.00,,---,0.00,VWS V14.01,2013-05-15 06:26:00,
2013-05-14 23:30:00,54.0,34.8,30.00,WNW,284,0.0,2.0,48,0.00,,---,0.00,VWS V14.01,2013-05-15 06:30:00,
2013-05-14 23:31:00,53.9,34.7,30.01,WNW,284,0.0,0.0,48,0.00,,---,0.00,VWS V14.01,2013-05-15 06:31:00,
2013-05-14 23:36:00,53.3,34.7,30.01,WNW,284,0.0,0.0,49,0.00,,---,0.00,VWS V14.01,2013-05-15 06:36:00,
2013-05-14 23:41:00,52.8,34.2,30.00,WNW,284,0.0,0.0,49,0.00,,---,0.00,VWS V14.01,2013-05-15 06:41:00,
2013-05-14 23:45:00,52.6,34.0,30.00,WNW,284,0.0,0.0,49,0.00,,---,0.00,VWS V14.01,2013-05-15 06:45:00,
2013-05-14 23:46:00,52.6,34.0,30.01,WNW,283,0.0,0.0,49,0.00,,---,0.00,VWS V14.01,2013-05-15 06:46:00,
2013-05-14 23:50:00,51.5,35.9,30.01,NE,37,0.0,0.0,55,0.00,,---,0.00,VWS V14.01,2013-05-15 06:50:00,
2013-05-14 23:55:00,50.2,34.7,30.01,NE,38,0.0,0.0,55,0.00,,---,0.00,VWS V14.01,2013-05-15 06:55:00,